Time;durP1;ratioP1;P1;durP2;ratioP2;P2;SDS_P1;SDS_P2;PMS_P1;PMS_P2;Temp;Humidity;BMP_temperature;BMP_pressure;BME280_temperature;BME280_humidity;BME280_pressure;Samples;Min_cycle;Max_cycle;Signal;HPM_P1;HPM_P2
2022/06/23 00:01:21;;;;;;;3.63;1.83;;;15.90;99.90;;;;;;5092632;28;20082;-89
2022/06/23 00:03:48;;;;;;;2.60;1.77;;;15.80;99.90;;;;;;5092395;28;20020;-88
2022/06/23 00:06:35;;;;;;;1.95;1.75;;;15.80;99.90;;;;;;5093890;28;20057;-88
2022/06/23 00:09:01;;;;;;;4.72;2.20;;;15.70;99.90;;;;;;5092230;28;20051;-89
2022/06/23 00:11:27;;;;;;;3.25;2.00;;;15.70;99.90;;;;;;5093820;28;20154;-89
2022/06/23 00:14:13;;;;;;;3.85;2.10;;;15.60;99.90;;;;;;5092289;28;20024;-89
2022/06/23 00:16:39;;;;;;;3.33;1.83;;;15.60;99.90;;;;;;5093519;28;20048;-89
2022/06/23 00:19:07;;;;;;;3.47;2.00;;;15.50;99.90;;;;;;5094641;28;20496;-89
2022/06/23 00:21:35;;;;;;;3.08;2.22;;;15.50;99.90;;;;;;5096394;28;20055;-89
2022/06/23 00:24:06;;;;;;;2.40;2.15;;;15.40;99.90;;;;;;5097315;28;20182;-89
2022/06/23 00:26:34;;;;;;;3.25;2.05;;;15.30;99.90;;;;;;5094272;28;20496;-89
2022/06/23 00:29:06;;;;;;;4.80;2.10;;;15.20;99.90;;;;;;5094392;28;20032;-89
2022/06/23 00:31:42;;;;;;;2.92;2.40;;;15.10;99.90;;;;;;5092568;28;20031;-89
2022/06/23 00:34:20;;;;;;;4.05;2.20;;;15.00;99.90;;;;;;5093732;28;20028;-89
2022/06/23 00:37:03;;;;;;;3.33;2.05;;;15.00;99.90;;;;;;5092624;28;20088;-89
2022/06/23 00:39:40;;;;;;;2.78;2.17;;;14.90;99.90;;;;;;5092218;28;20024;-90
2022/06/23 00:42:28;;;;;;;2.67;2.10;;;14.80;99.90;;;;;;5092634;28;20143;-89
2022/06/23 00:45:13;;;;;;;4.07;2.20;;;14.80;99.90;;;;;;5093730;28;20028;-88
2022/06/23 00:47:44;;;;;;;3.88;2.10;;;14.70;99.90;;;;;;5091832;28;20028;-88
2022/06/23 00:50:28;;;;;;;3.85;2.35;;;14.70;99.90;;;;;;5093376;28;20027;-88
2022/06/23 00:53:12;;;;;;;2.38;1.80;;;14.70;99.90;;;;;;5092221;28;20031;-88
2022/06/23 00:56:02;;;;;;;2.88;1.80;;;14.60;99.90;;;;;;5092328;28;20031;-88
2022/06/23 00:58:54;;;;;;;2.90;2.00;;;14.60;99.90;;;;;;5092423;28;20036;-89
2022/06/23 01:01:41;;;;;;;7.00;2.40;;;14.50;99.90;;;;;;5082813;28;20523;-88
2022/06/23 01:04:33;;;;;;;3.13;2.30;;;14.50;99.90;;;;;;5100043;28;20031;-88
2022/06/23 01:07:24;;;;;;;3.47;2.80;;;14.50;99.90;;;;;;5093476;28;20035;-89
2022/06/23 01:10:01;;;;;;;2.47;2.15;;;14.40;99.90;;;;;;4994594;28;20381;-88
2022/06/23 01:12:37;;;;;;;2.50;1.90;;;14.30;99.90;;;;;;5010572;28;20515;-88
2022/06/23 01:15:07;;;;;;;7.00;2.20;;;14.40;99.90;;;;;;5011062;28;20510;-89
2022/06/23 01:17:42;;;;;;;2.85;2.30;;;14.30;99.90;;;;;;4994200;28;20117;-89
2022/06/23 01:20:22;;;;;;;2.38;2.17;;;14.30;99.90;;;;;;4994443;28;20480;-88
2022/06/23 01:22:50;;;;;;;3.25;2.50;;;14.30;99.90;;;;;;5015404;28;20069;-88
2022/06/23 01:25:24;;;;;;;5.78;2.30;;;14.30;99.90;;;;;;4994324;28;20030;-89
2022/06/23 01:28:02;;;;;;;3.53;2.72;;;14.30;99.90;;;;;;4993983;28;20121;-89
2022/06/23 01:30:55;;;;;;;5.15;3.10;;;14.20;99.90;;;;;;5011286;28;20061;-88
2022/06/23 01:34:00;;;;;;;5.75;3.38;;;14.10;99.90;;;;;;4980932;28;20053;-88
2022/06/23 01:36:43;;;;;;;5.32;2.67;;;14.00;99.90;;;;;;4952205;29;20067;-88
2022/06/23 01:39:43;;;;;;;4.78;2.90;;;13.90;99.90;;;;;;4959528;29;20046;-88
2022/06/23 01:42:19;;;;;;;2.80;2.30;;;13.80;99.90;;;;;;4937522;29;20047;-88
2022/06/23 01:44:51;;;;;;;5.38;3.38;;;13.80;99.90;;;;;;4952936;29;20035;-87
2022/06/23 01:47:41;;;;;;;2.92;2.45;;;13.80;99.90;;;;;;5004074;28;20087;-89
2022/06/23 01:50:13;;;;;;;3.45;2.63;;;13.80;99.90;;;;;;5050662;28;20032;-89
2022/06/23 01:52:41;;;;;;;4.65;2.38;;;13.80;99.90;;;;;;5050799;28;20035;-89
2022/06/23 01:55:19;;;;;;;3.60;2.58;;;13.70;99.90;;;;;;5033879;28;20025;-89
2022/06/23 01:57:52;;;;;;;3.22;2.60;;;13.70;99.90;;;;;;5050346;28;20478;-89
2022/06/23 02:00:21;;;;;;;3.80;2.42;;;13.70;99.90;;;;;;5033757;28;20068;-88
2022/06/23 02:03:11;;;;;;;3.25;2.45;;;13.70;99.90;;;;;;5033515;28;20378;-89
2022/06/23 02:05:58;;;;;;;4.38;2.33;;;13.60;99.90;;;;;;5033870;28;20048;-88
2022/06/23 02:08:45;;;;;;;3.28;2.35;;;13.60;99.90;;;;;;5050488;28;20021;-88
2022/06/23 02:11:35;;;;;;;5.32;3.60;;;13.60;99.90;;;;;;5081046;28;20025;-88
2022/06/23 02:14:11;;;;;;;3.92;3.30;;;13.50;99.90;;;;;;5092408;28;20032;-89
2022/06/23 02:17:00;;;;;;;4.95;3.50;;;13.40;99.90;;;;;;5090823;28;20115;-88
2022/06/23 02:19:44;;;;;;;6.15;2.88;;;13.30;99.90;;;;;;5078666;28;20036;-88
2022/06/23 02:22:24;;;;;;;4.05;2.95;;;13.30;99.90;;;;;;5093170;28;20566;-88
2022/06/23 02:25:15;;;;;;;2.88;2.50;;;13.30;99.90;;;;;;5092988;28;20024;-88
2022/06/23 02:27:46;;;;;;;;;;;13.30;99.90;;;;;;5093494;28;20050;-88
2022/06/23 02:30:37;;;;;;;2.40;2.20;;;13.30;99.90;;;;;;5092817;28;20003;-88
2022/06/23 02:33:23;;;;;;;3.85;2.55;;;13.30;99.90;;;;;;5095533;28;20136;-87
2022/06/23 02:36:07;;;;;;;2.70;2.10;;;13.30;99.90;;;;;;5096292;28;20020;-88
2022/06/23 02:38:45;;;;;;;2.75;2.05;;;13.30;99.90;;;;;;5100004;28;20108;-87
2022/06/23 02:41:13;;;;;;;3.72;2.20;;;13.30;99.90;;;;;;5106360;28;20089;-88
2022/06/23 02:43:48;;;;;;;3.92;2.58;;;13.30;99.90;;;;;;5097022;28;20036;-87
2022/06/23 02:46:38;;;;;;;3.60;2.70;;;13.30;99.90;;;;;;5094649;28;20032;-88
2022/06/23 02:49:16;;;;;;;3.33;2.42;;;13.20;99.90;;;;;;5095203;28;20089;-89
2022/06/23 02:52:03;;;;;;;6.10;3.70;;;13.20;99.90;;;;;;5095083;28;20035;-88
2022/06/23 02:55:18;;;;;;;3.72;3.28;;;13.20;99.90;;;;;;5095240;28;20036;-88
2022/06/23 02:58:06;;;;;;;4.88;3.55;;;13.10;99.90;;;;;;5100916;28;20020;-88
2022/06/23 03:00:47;;;;;;;8.07;3.55;;;13.10;99.90;;;;;;5096169;28;20107;-88
2022/06/23 03:03:34;;;;;;;4.68;2.63;;;13.00;99.90;;;;;;5095681;28;20047;-88
2022/06/23 03:06:17;;;;;;;4.90;3.33;;;13.00;99.90;;;;;;5095305;28;20058;-88
2022/06/23 03:08:48;;;;;;;4.78;3.17;;;13.10;99.90;;;;;;5092810;28;20054;-89
2022/06/23 03:14:39;;;;;;;4.88;2.65;;;13.10;99.90;;;;;;5094998;28;20550;-88
2022/06/23 03:17:24;;;;;;;4.00;3.17;;;13.00;99.90;;;;;;5093793;28;20059;-88
2022/06/23 03:20:37;;;;;;;4.35;2.47;;;13.00;99.90;;;;;;5093613;28;20077;-87
2022/06/23 03:23:17;;;;;;;4.78;2.50;;;12.90;99.90;;;;;;5093243;28;20050;-88
2022/06/23 03:26:12;;;;;;;3.38;2.47;;;12.90;99.90;;;;;;5093270;28;20046;-89
2022/06/23 03:28:46;;;;;;;4.30;2.80;;;12.90;99.90;;;;;;5094047;28;20548;-88
2022/06/23 03:31:17;;;;;;;3.80;3.28;;;12.90;99.90;;;;;;5093982;28;20022;-88
2022/06/23 03:33:48;;;;;;;4.90;2.95;;;12.80;99.90;;;;;;5094669;28;20024;-88
2022/06/23 03:36:13;;;;;;;;;;;12.80;99.90;;;;;;5093584;28;20066;-88
2022/06/23 03:41:55;;;;;;;4.90;2.70;;;12.80;99.90;;;;;;5094222;28;20487;-88
2022/06/23 03:44:30;;;;;;;4.35;2.40;;;12.80;99.90;;;;;;5093406;28;20032;-89
2022/06/23 03:47:21;;;;;;;2.60;2.40;;;12.80;99.90;;;;;;5093213;28;20024;-88
2022/06/23 03:50:00;;;;;;;3.35;2.83;;;12.80;99.90;;;;;;5093836;28;20096;-89
2022/06/23 03:52:41;;;;;;;4.47;2.63;;;12.70;99.90;;;;;;5092732;28;20263;-88
2022/06/23 03:55:16;;;;;;;4.72;2.95;;;12.70;99.90;;;;;;5093849;28;20069;-88
2022/06/23 03:57:48;;;;;;;3.00;2.40;;;12.70;99.90;;;;;;5093079;28;20028;-88
2022/06/23 04:00:36;;;;;;;4.03;2.67;;;12.70;99.90;;;;;;5093312;28;20051;-90
2022/06/23 04:03:21;;;;;;;3.03;2.38;;;12.70;99.90;;;;;;5092352;28;20039;-87
2022/06/23 04:05:56;;;;;;;3.63;2.60;;;12.70;99.90;;;;;;5093008;28;20028;-89
2022/06/23 04:08:24;;;;;;;3.33;2.58;;;12.70;99.90;;;;;;5093593;28;20170;-88
2022/06/23 04:10:52;;;;;;;3.95;2.60;;;12.70;99.90;;;;;;5092626;28;20107;-88
2022/06/23 04:13:38;;;;;;;3.17;2.67;;;12.70;99.90;;;;;;5094286;28;20103;-88
2022/06/23 04:16:09;;;;;;;4.50;2.80;;;12.70;99.90;;;;;;5098783;28;20028;-89
2022/06/23 04:18:40;;;;;;;5.13;2.40;;;12.70;99.90;;;;;;5096096;28;20132;-88
2022/06/23 04:21:28;;;;;;;3.45;2.75;;;12.60;99.90;;;;;;5097972;28;20066;-89
2022/06/23 04:23:57;;;;;;;3.03;2.72;;;12.60;99.90;;;;;;5098912;28;20063;-89
2022/06/23 04:26:30;;;;;;;3.45;2.60;;;12.60;99.90;;;;;;5116578;28;20035;-89
2022/06/23 04:29:16;;;;;;;3.13;2.58;;;12.60;99.90;;;;;;5116909;28;20004;-88
2022/06/23 04:31:57;;;;;;;5.18;2.60;;;12.70;99.90;;;;;;5101118;28;20039;-88
2022/06/23 04:34:26;;;;;;;;;;;12.60;99.90;;;;;;5097030;28;20032;-89
2022/06/23 04:36:52;;;;;;;4.82;2.65;;;12.60;99.90;;;;;;5095019;28;19930;-89
2022/06/23 04:39:45;;;;;;;3.75;2.90;;;12.50;99.90;;;;;;5095795;28;20020;-89
2022/06/23 04:42:24;;;;;;;4.53;2.70;;;12.40;99.90;;;;;;5089785;28;20132;-88
2022/06/23 04:45:15;;;;;;;5.93;3.53;;;12.30;99.90;;;;;;5095302;28;20028;-89
2022/06/23 04:47:40;;;;;;;;;;;12.30;99.90;;;;;;5095191;28;20028;-89
2022/06/23 04:50:14;;;;;;;5.43;2.95;;;12.30;99.90;;;;;;5094663;28;19908;-90
2022/06/23 04:52:53;;;;;;;3.72;2.80;;;12.30;99.90;;;;;;5094492;28;20200;-88
2022/06/23 04:55:26;;;;;;;3.40;2.75;;;12.30;99.90;;;;;;5091724;28;20088;-88
2022/06/23 04:57:54;;;;;;;3.80;3.30;;;12.30;99.90;;;;;;5092958;28;20032;-90
2022/06/23 05:00:27;;;;;;;4.60;2.75;;;12.30;99.90;;;;;;5092458;28;20048;-89
2022/06/23 05:03:00;;;;;;;4.70;2.92;;;12.30;99.90;;;;;;5093051;28;20039;-89
2022/06/23 05:05:34;;;;;;;4.90;2.70;;;12.40;99.90;;;;;;5094100;28;20020;-88
2022/06/23 05:08:18;;;;;;;3.10;2.80;;;12.40;99.90;;;;;;5094324;28;20079;-89
2022/06/23 05:10:50;;;;;;;3.83;2.85;;;12.40;99.90;;;;;;5093087;28;20088;-88
2022/06/23 05:13:28;;;;;;;5.45;2.70;;;12.40;99.90;;;;;;5093503;28;20052;-88
2022/06/23 05:16:18;;;;;;;4.25;2.80;;;12.50;99.90;;;;;;5093718;28;20032;-89
2022/06/23 05:18:51;;;;;;;3.80;2.72;;;12.50;99.90;;;;;;5092100;28;20081;-89
2022/06/23 05:21:30;;;;;;;4.60;3.13;;;12.60;99.90;;;;;;5092150;28;20472;-88
2022/06/23 05:24:14;;;;;;;5.03;3.60;;;12.60;99.90;;;;;;5091892;28;20461;-89
2022/06/23 05:26:46;;;;;;;4.82;3.05;;;12.60;99.90;;;;;;5092291;28;20055;-89
2022/06/23 05:29:21;;;;;;;6.35;3.20;;;12.60;99.90;;;;;;5092063;28;20024;-88
2022/06/23 05:31:52;;;;;;;4.53;3.08;;;12.70;99.90;;;;;;5091957;28;20024;-88
2022/06/23 05:34:25;;;;;;;4.68;2.80;;;12.70;99.90;;;;;;5097481;28;20020;-88
2022/06/23 05:37:04;;;;;;;5.25;3.40;;;12.70;99.90;;;;;;5094794;28;20019;-90
2022/06/23 05:39:45;;;;;;;3.05;2.75;;;12.70;99.90;;;;;;5092694;28;20095;-89
2022/06/23 05:42:23;;;;;;;3.08;2.70;;;12.80;99.90;;;;;;5101978;28;20036;-87
2022/06/23 05:44:57;;;;;;;4.68;2.75;;;12.80;99.90;;;;;;5106034;28;20052;-89
2022/06/23 05:47:26;;;;;;;3.40;2.60;;;12.90;99.90;;;;;;5093325;28;20039;-90
2022/06/23 05:50:00;;;;;;;3.20;2.78;;;13.00;99.90;;;;;;5092413;28;20027;-88
2022/06/23 05:52:33;;;;;;;4.35;2.95;;;13.00;99.90;;;;;;5092725;28;20031;-89
2022/06/23 05:55:25;;;;;;;5.47;3.10;;;13.10;99.90;;;;;;5091121;28;20032;-89
2022/06/23 05:57:51;;;;;;;5.50;2.97;;;13.10;99.90;;;;;;5092056;28;20051;-89
2022/06/23 06:00:25;;;;;;;2.90;2.50;;;13.20;99.90;;;;;;5091777;28;20072;-87
2022/06/23 06:03:19;;;;;;;3.17;2.80;;;13.30;99.90;;;;;;5088237;28;20024;-89
2022/06/23 06:05:53;;;;;;;3.13;2.75;;;13.40;99.90;;;;;;5089203;28;20039;-89
2022/06/23 06:11:32;;;;;;;3.45;2.90;;;13.60;99.90;;;;;;5095729;28;20116;-89
2022/06/23 06:13:59;;;;;;;5.47;3.03;;;13.70;99.90;;;;;;5096341;28;20020;-90
2022/06/23 06:16:25;;;;;;;4.22;3.00;;;13.80;99.90;;;;;;5096118;28;20480;-89
2022/06/23 06:18:54;;;;;;;3.42;2.60;;;13.80;99.90;;;;;;5095637;28;20030;-88
2022/06/23 06:21:22;;;;;;;5.20;3.00;;;13.90;99.90;;;;;;5095717;28;20484;-88
2022/06/23 06:23:54;;;;;;;4.25;3.17;;;14.00;99.90;;;;;;5114042;27;20060;-89
2022/06/23 06:26:23;;;;;;;5.70;3.03;;;14.10;99.90;;;;;;5094569;28;20052;-87
2022/06/23 06:28:58;;;;;;;5.95;3.13;;;14.20;99.90;;;;;;5092337;28;20107;-88
2022/06/23 06:31:31;;;;;;;4.78;2.90;;;14.30;99.90;;;;;;5095580;28;20137;-88
2022/06/23 06:34:12;;;;;;;3.63;2.70;;;14.30;99.90;;;;;;5095629;28;20141;-89
2022/06/23 06:36:41;;;;;;;4.18;2.90;;;14.40;99.90;;;;;;5093227;28;20020;-89
2022/06/23 06:39:36;;;;;;;3.72;2.63;;;14.50;99.90;;;;;;5097754;28;20020;-89
2022/06/23 06:42:15;;;;;;;4.15;2.78;;;14.60;99.90;;;;;;5092643;28;20139;-89
2022/06/23 06:44:46;;;;;;;5.13;2.80;;;14.70;99.90;;;;;;5122915;27;20028;-88
2022/06/23 06:47:25;;;;;;;6.53;2.92;;;14.80;99.90;;;;;;5092157;28;20089;-89
2022/06/23 06:49:54;;;;;;;4.60;2.80;;;14.90;99.90;;;;;;5097285;28;20496;-88
2022/06/23 06:52:20;;;;;;;4.97;3.08;;;15.00;99.90;;;;;;5096865;28;20028;-90
2022/06/23 06:54:54;;;;;;;3.80;2.63;;;15.10;99.90;;;;;;5095634;28;20027;-87
2022/06/23 06:57:31;;;;;;;3.88;2.55;;;15.20;99.90;;;;;;5096330;28;20031;-88
2022/06/23 07:00:11;;;;;;;5.57;3.15;;;15.30;99.90;;;;;;5095641;28;20077;-88
2022/06/23 07:02:47;;;;;;;3.67;3.08;;;15.50;99.90;;;;;;5094627;28;20032;-88
2022/06/23 07:05:38;;;;;;;5.57;3.75;;;15.60;99.90;;;;;;5094366;28;20090;-89
2022/06/23 07:08:15;;;;;;;5.68;3.08;;;15.70;99.90;;;;;;5095400;28;20024;-89
2022/06/23 07:10:48;;;;;;;5.18;3.13;;;15.80;99.90;;;;;;5095245;28;20020;-89
2022/06/23 07:13:24;;;;;;;4.45;3.22;;;15.90;99.90;;;;;;5094495;28;20027;-89
2022/06/23 07:16:17;;;;;;;4.45;2.50;;;16.00;99.90;;;;;;5094443;28;20114;-88
2022/06/23 07:18:56;;;;;;;4.30;3.03;;;16.20;99.90;;;;;;5093111;28;20024;-88
2022/06/23 07:21:39;;;;;;;6.70;3.03;;;16.40;99.90;;;;;;5094383;28;20469;-89
2022/06/23 07:24:41;;;;;;;5.32;2.90;;;16.40;99.90;;;;;;5094461;28;20397;-88
2022/06/23 07:27:31;;;;;;;5.00;3.35;;;16.60;99.90;;;;;;5063550;28;20039;-87
2022/06/23 07:29:59;;;;;;;8.02;3.58;;;16.70;99.90;;;;;;5094140;28;20019;-88
2022/06/23 07:32:28;;;;;;;5.15;3.17;;;16.90;99.90;;;;;;5095744;28;20032;-90
2022/06/23 07:35:24;;;;;;;5.18;3.53;;;17.00;99.90;;;;;;5098045;28;20032;-90
2022/06/23 07:38:12;;;;;;;5.68;3.95;;;17.20;99.90;;;;;;5078118;28;20024;-90
2022/06/23 07:41:07;;;;;;;5.90;3.30;;;17.40;99.90;;;;;;5094617;28;20016;-88
2022/06/23 07:44:06;;;;;;;8.55;4.20;;;17.50;99.90;;;;;;5090720;28;20036;-90
2022/06/23 07:46:34;;;;;;;6.35;4.05;;;17.70;99.90;;;;;;5093158;28;21412;-89
2022/06/23 07:49:05;;;;;;;10.70;3.95;;;17.80;99.90;;;;;;5095012;28;20012;-89
2022/06/23 07:51:36;;;;;;;7.93;3.65;;;17.90;99.90;;;;;;5083875;28;20085;-90
2022/06/23 07:54:04;;;;;;;9.82;4.20;;;18.00;99.90;;;;;;5090657;28;20040;-90
2022/06/23 07:56:32;;;;;;;8.35;3.60;;;18.20;99.90;;;;;;5093022;28;20030;-90
2022/06/23 07:59:16;;;;;;;8.80;3.20;;;18.30;99.90;;;;;;5097759;28;20028;-90
2022/06/23 08:01:45;;;;;;;9.00;3.70;;;18.50;99.90;;;;;;5093793;28;20044;-90
2022/06/23 08:04:29;;;;;;;4.13;2.72;;;18.70;99.90;;;;;;5095273;28;20103;-89
2022/06/23 08:06:57;;;;;;;8.60;3.65;;;18.90;99.90;;;;;;5094690;28;20027;-89
2022/06/23 08:09:31;;;;;;;6.78;4.25;;;19.00;99.90;;;;;;5093525;28;20024;-90
2022/06/23 08:16:49;;;;;;;6.57;3.80;;;19.40;99.90;;;;;;5102491;28;20093;-89
2022/06/23 08:17:38;;;;;;;9.07;3.25;;;19.60;99.90;;;;;;5095371;28;20047;-90
2022/06/23 08:20:05;;;;;;;7.90;3.60;;;19.80;99.90;;;;;;5100797;28;20020;-92
2022/06/23 08:22:37;;;;;;;8.68;3.75;;;19.90;99.90;;;;;;5098205;28;20042;-89
2022/06/23 08:25:06;;;;;;;7.53;3.95;;;20.10;99.90;;;;;;5104516;28;20026;-89
2022/06/23 08:27:33;;;;;;;6.38;2.97;;;20.20;99.90;;;;;;5117191;28;20108;-90
2022/06/23 08:30:03;;;;;;;4.90;3.75;;;20.40;99.90;;;;;;5117334;28;20012;-89
2022/06/23 08:32:30;;;;;;;5.55;2.72;;;20.50;99.90;;;;;;5104878;28;20126;-90
2022/06/23 08:35:03;;;;;;;9.00;3.30;;;20.70;99.90;;;;;;5097686;28;20464;-91
2022/06/23 08:37:36;;;;;;;6.45;3.40;;;20.90;99.90;;;;;;5096589;28;20042;-89
2022/06/23 08:40:14;;;;;;;5.80;3.03;;;21.00;99.90;;;;;;5098254;28;20020;-89
2022/06/23 08:43:00;;;;;;;6.60;3.50;;;21.10;99.00;;;;;;5094448;28;20505;-91
2022/06/23 08:45:39;;;;;;;6.78;3.58;;;21.30;98.10;;;;;;5055171;28;20033;-89
2022/06/23 08:48:19;;;;;;;6.28;3.28;;;21.40;97.40;;;;;;5111135;28;20049;-88
2022/06/23 08:51:18;;;;;;;9.02;3.08;;;21.60;96.60;;;;;;5100900;28;20151;-91
2022/06/23 08:54:10;;;;;;;11.00;3.00;;;21.70;95.70;;;;;;5092912;28;20541;-91
2022/06/23 08:57:08;;;;;;;11.88;3.35;;;21.90;95.10;;;;;;5095775;28;20040;-91
2022/06/23 08:59:57;;;;;;;6.45;3.15;;;22.00;94.50;;;;;;5094277;28;20059;-91
2022/06/23 09:02:42;;;;;;;8.65;3.13;;;22.30;93.80;;;;;;5080661;28;20052;-92
2022/06/23 09:05:14;;;;;;;7.85;3.30;;;22.50;92.70;;;;;;5093615;28;20038;-93
2022/06/23 09:08:09;;;;;;;5.63;3.38;;;22.70;92.20;;;;;;5093922;28;20028;-92
2022/06/23 09:10:53;;;;;;;9.55;3.20;;;22.80;91.10;;;;;;5075269;28;20029;-92
2022/06/23 09:13:57;;;;;;;4.43;3.00;;;22.90;90.40;;;;;;5073939;28;20087;-92
2022/06/23 09:16:25;;;;;;;5.30;3.00;;;23.00;89.60;;;;;;5077137;28;20016;-92
2022/06/23 09:19:04;;;;;;;7.65;3.15;;;23.10;88.50;;;;;;5093471;28;20544;-92
2022/06/23 09:21:48;;;;;;;6.82;3.67;;;23.20;87.80;;;;;;5094473;28;20108;-92
2022/06/23 09:24:42;;;;;;;7.18;2.58;;;23.40;86.50;;;;;;5099280;28;20513;-92
2022/06/23 09:27:13;;;;;;;6.03;3.40;;;23.60;86.50;;;;;;5093444;28;20078;-92
2022/06/23 09:30:02;;;;;;;6.97;2.85;;;23.70;84.40;;;;;;5093756;28;20094;-91
2022/06/23 09:32:40;;;;;;;7.80;3.20;;;23.80;83.50;;;;;;5094816;28;20033;-91
2022/06/23 09:35:44;;;;;;;6.85;3.85;;;23.90;82.60;;;;;;5090097;28;20024;-92
2022/06/23 09:38:10;;;;;;;5.65;3.35;;;24.10;81.80;;;;;;5093957;28;20035;-92
2022/06/23 09:40:57;;;;;;;6.05;3.47;;;24.30;81.00;;;;;;5094927;28;20032;-91
2022/06/23 09:43:42;;;;;;;5.65;3.78;;;24.30;79.70;;;;;;5100978;28;20566;-91
2022/06/23 09:46:28;;;;;;;6.45;3.58;;;24.40;79.00;;;;;;5131024;27;20024;-90
2022/06/23 09:49:12;;;;;;;4.10;3.08;;;24.60;78.40;;;;;;5116254;28;20023;-92
2022/06/23 09:51:47;;;;;;;4.32;3.35;;;24.70;77.50;;;;;;5112740;28;20099;-92
2022/06/23 09:54:25;;;;;;;7.82;3.75;;;24.90;76.50;;;;;;5117631;28;20481;-92
2022/06/23 09:56:56;;;;;;;8.75;3.47;;;25.00;76.00;;;;;;5103905;28;20421;-92
2022/06/23 09:59:40;;;;;;;11.43;2.92;;;25.10;75.30;;;;;;5095640;28;20097;-92
2022/06/23 10:02:12;;;;;;;9.27;3.00;;;25.20;74.50;;;;;;5096094;28;20048;-92
2022/06/23 10:04:46;;;;;;;7.78;3.20;;;25.20;73.60;;;;;;5095975;28;20456;-92
2022/06/23 10:07:37;;;;;;;14.45;2.67;;;25.30;73.20;;;;;;5095546;28;20040;-92
2022/06/23 10:10:20;;;;;;;4.32;2.90;;;25.40;72.90;;;;;;5095507;28;20032;-91
2022/06/23 10:13:04;;;;;;;4.13;2.53;;;25.60;72.70;;;;;;5095649;28;20032;-91
2022/06/23 10:15:48;;;;;;;7.72;3.13;;;25.70;71.70;;;;;;5098735;28;20031;-93
2022/06/23 10:18:34;;;;;;;6.07;2.70;;;25.80;71.10;;;;;;5094546;28;20051;-91
2022/06/23 10:21:12;;;;;;;6.43;3.13;;;25.90;70.90;;;;;;5093247;28;20023;-93
2022/06/23 10:23:56;;;;;;;8.93;3.30;;;26.10;70.70;;;;;;5092395;28;20039;-92
2022/06/23 10:26:53;;;;;;;6.43;3.20;;;26.30;70.00;;;;;;5086544;28;20024;-92
2022/06/23 10:29:37;;;;;;;6.00;2.70;;;26.40;68.60;;;;;;5091596;28;20120;-90
2022/06/23 10:32:09;;;;;;;4.57;2.30;;;26.50;67.70;;;;;;5094403;28;20051;-91
2022/06/23 10:34:34;;;;;;;6.10;2.30;;;26.50;67.30;;;;;;5094151;28;20031;-91
2022/06/23 10:37:29;;;;;;;13.45;2.88;;;26.50;67.20;;;;;;5095822;28;20024;-93
2022/06/23 10:40:10;;;;;;;7.50;2.50;;;26.60;67.00;;;;;;5092166;28;20040;-93
2022/06/23 10:43:03;;;;;;;7.05;2.80;;;26.90;66.40;;;;;;5096395;28;20036;-94
2022/06/23 10:45:38;;;;;;;5.25;2.33;;;26.90;65.30;;;;;;5097385;28;20108;-93
2022/06/23 10:48:17;;;;;;;5.63;2.53;;;26.80;65.20;;;;;;5098673;28;20031;-93
2022/06/23 10:50:43;;;;;;;5.18;2.53;;;26.60;65.20;;;;;;5109160;28;20035;-91
2022/06/23 10:53:14;;;;;;;3.80;2.42;;;26.50;65.70;;;;;;5097149;28;20028;-92
2022/06/23 10:55:49;;;;;;;3.88;2.40;;;26.50;65.20;;;;;;5096765;28;20024;-92
2022/06/23 10:58:27;;;;;;;4.10;2.38;;;26.50;64.80;;;;;;5094563;28;20047;-92
2022/06/23 11:01:23;;;;;;;5.45;2.35;;;26.50;64.80;;;;;;5094378;28;20127;-93
2022/06/23 11:04:34;;;;;;;6.90;2.33;;;26.70;65.00;;;;;;5095240;28;20527;-91
2022/06/23 11:07:11;;;;;;;4.68;2.30;;;27.00;63.40;;;;;;5054905;28;20059;-92
2022/06/23 11:09:57;;;;;;;3.78;2.25;;;27.20;61.80;;;;;;5098559;28;20115;-93
2022/06/23 11:13:02;;;;;;;5.32;2.45;;;27.40;61.40;;;;;;5108045;28;20540;-93
2022/06/23 11:15:47;;;;;;;7.57;2.88;;;27.70;60.30;;;;;;5098829;28;20477;-92
2022/06/23 11:18:47;;;;;;;2.92;2.20;;;27.70;59.50;;;;;;5097361;28;20515;-92
2022/06/23 11:21:24;;;;;;;6.13;2.50;;;28.00;58.80;;;;;;5099499;28;20062;-93
2022/06/23 11:24:12;;;;;;;5.05;1.90;;;28.10;58.20;;;;;;5094597;28;20043;-92
2022/06/23 11:27:04;;;;;;;4.43;2.00;;;28.20;58.20;;;;;;5095025;28;20028;-93
2022/06/23 11:29:48;;;;;;;6.50;2.25;;;28.50;58.20;;;;;;5095041;28;20554;-93
2022/06/23 11:32:28;;;;;;;5.50;2.10;;;28.80;57.60;;;;;;5095050;28;20024;-93
2022/06/23 11:35:01;;;;;;;5.45;2.55;;;29.10;57.30;;;;;;5099068;28;20031;-95
2022/06/23 11:37:45;;;;;;;3.28;2.20;;;29.10;56.70;;;;;;5095414;28;20032;-94
2022/06/23 11:40:17;;;;;;;4.18;2.13;;;29.00;56.10;;;;;;5093798;28;20114;-94
2022/06/23 11:43:13;;;;;;;4.65;2.30;;;28.80;56.50;;;;;;5095652;28;20079;-93
2022/06/23 11:46:07;;;;;;;6.72;2.28;;;28.90;55.90;;;;;;5096394;28;20024;-93
2022/06/23 11:48:57;;;;;;;7.35;2.63;;;28.90;55.90;;;;;;5097929;28;20020;-93
2022/06/23 11:51:53;;;;;;;5.88;1.98;;;28.80;55.50;;;;;;5105999;28;20080;-95
2022/06/23 11:54:31;;;;;;;6.20;2.42;;;28.60;55.50;;;;;;5102247;28;20035;-95
2022/06/23 11:57:07;;;;;;;6.22;2.50;;;28.70;56.20;;;;;;5094025;28;20073;-92
2022/06/23 12:00:01;;;;;;;3.38;2.70;;;29.10;56.60;;;;;;5094452;28;20127;-94
2022/06/23 12:02:27;;;;;;;6.18;2.50;;;29.20;55.30;;;;;;5097731;28;20190;-94
2022/06/23 12:05:19;;;;;;;4.47;2.58;;;29.30;55.30;;;;;;5097125;28;20048;-92
2022/06/23 12:08:24;;;;;;;5.47;2.50;;;29.40;54.50;;;;;;5079938;28;20032;-91
2022/06/23 12:10:50;;;;;;;5.15;2.70;;;29.40;54.10;;;;;;5007981;28;20102;-92
2022/06/23 12:13:16;;;;;;;5.25;2.33;;;29.30;54.00;;;;;;5015745;28;20101;-92
2022/06/23 12:15:47;;;;;;;3.33;2.13;;;29.30;54.50;;;;;;5015194;28;20049;-93
2022/06/23 12:18:39;;;;;;;4.28;1.90;;;29.50;54.40;;;;;;5015093;28;20091;-94
2022/06/23 12:21:36;;;;;;;7.38;2.20;;;29.60;54.30;;;;;;5009486;28;20057;-92
2022/06/23 12:24:36;;;;;;;7.57;2.55;;;29.90;54.20;;;;;;5012935;28;20126;-92
2022/06/23 12:27:22;;;;;;;3.05;2.20;;;30.30;53.50;;;;;;5017600;28;20029;-85
2022/06/23 12:30:00;;;;;;;6.25;2.70;;;30.40;52.60;;;;;;5017142;28;20022;-90
2022/06/23 12:33:01;;;;;;;5.95;2.58;;;30.10;52.10;;;;;;5012275;28;20088;-92
2022/06/23 12:35:48;;;;;;;5.05;2.10;;;29.70;52.60;;;;;;5003067;28;20034;-92
2022/06/23 12:38:29;;;;;;;9.35;2.78;;;29.60;53.20;;;;;;4998596;28;20030;-91
2022/06/23 12:41:08;;;;;;;8.10;2.53;;;29.60;53.30;;;;;;4996877;28;20498;-93
2022/06/23 12:43:43;;;;;;;6.28;2.65;;;29.50;53.50;;;;;;4995836;28;20092;-91
2022/06/23 12:46:24;;;;;;;3.53;2.13;;;29.40;53.90;;;;;;4999594;28;20037;-92
2022/06/23 12:49:13;;;;;;;5.70;2.53;;;29.50;54.10;;;;;;5085556;28;20048;-93
2022/06/23 12:52:06;;;;;;;6.30;2.40;;;29.50;54.00;;;;;;5102990;28;20031;-93
2022/06/23 12:54:53;;;;;;;6.43;2.63;;;29.60;53.80;;;;;;5093762;28;20048;-91
2022/06/23 12:57:42;;;;;;;4.63;2.20;;;29.60;53.70;;;;;;5093394;28;20579;-91
2022/06/23 13:00:18;;;;;;;4.78;2.10;;;29.80;53.10;;;;;;5047368;28;20024;-93
2022/06/23 13:02:46;;;;;;;3.65;2.22;;;29.70;53.00;;;;;;5098453;28;20131;-93
2022/06/23 13:05:15;;;;;;;10.50;2.55;;;29.80;53.00;;;;;;5093440;28;20024;-94
2022/06/23 13:08:00;;;;;;;6.88;2.38;;;29.80;52.90;;;;;;5091771;28;20056;-92
2022/06/23 13:10:36;;;;;;;5.95;2.03;;;29.70;52.90;;;;;;5091999;28;20016;-93
2022/06/23 13:13:11;;;;;;;4.90;2.08;;;29.80;53.00;;;;;;5095304;28;20036;-95
2022/06/23 13:15:50;;;;;;;7.55;2.30;;;29.90;53.60;;;;;;5091079;28;20017;-94
2022/06/23 13:18:23;;;;;;;5.25;2.40;;;30.00;52.60;;;;;;5098757;28;20092;-94
2022/06/23 13:21:15;;;;;;;5.43;2.10;;;30.10;52.60;;;;;;5091793;28;20466;-93
2022/06/23 13:23:51;;;;;;;4.50;2.10;;;30.00;52.10;;;;;;5091875;28;20195;-94
2022/06/23 13:26:36;;;;;;;3.25;1.92;;;29.90;52.20;;;;;;5091639;28;20024;-94
2022/06/23 13:29:05;;;;;;;3.38;1.83;;;29.80;52.40;;;;;;5103675;28;20031;-93
2022/06/23 13:31:41;;;;;;;5.10;1.90;;;29.50;52.40;;;;;;5101061;28;20129;-92
2022/06/23 13:34:29;;;;;;;5.57;2.10;;;29.10;52.60;;;;;;5097419;28;20136;-95
2022/06/23 13:37:08;;;;;;;3.90;2.05;;;28.80;53.40;;;;;;5091594;28;20016;-94
2022/06/23 13:39:57;;;;;;;4.57;2.10;;;28.50;53.90;;;;;;5090626;28;20473;-94
2022/06/23 13:42:32;;;;;;;6.05;1.90;;;28.30;54.50;;;;;;5091300;28;20440;-92
2022/06/23 13:45:01;;;;;;;5.55;2.00;;;28.00;55.10;;;;;;5091740;28;20020;-93
2022/06/23 13:47:50;;;;;;;4.05;2.00;;;27.90;55.70;;;;;;5093651;28;20020;-91
2022/06/23 13:50:36;;;;;;;5.73;2.33;;;27.70;55.90;;;;;;5091891;28;20032;-90
2022/06/23 13:53:16;;;;;;;3.78;2.20;;;27.50;56.30;;;;;;5073194;28;20040;-90
2022/06/23 13:56:02;;;;;;;4.70;2.30;;;27.40;56.60;;;;;;5116148;28;20041;-91
2022/06/23 13:58:33;;;;;;;7.03;2.17;;;27.20;57.00;;;;;;5092445;28;20035;-90
2022/06/23 14:01:12;;;;;;;3.92;2.00;;;26.90;57.30;;;;;;5093747;28;20175;-90
2022/06/23 14:04:16;;;;;;;3.53;2.50;;;26.80;57.90;;;;;;5091083;28;20546;-93
2022/06/23 14:06:48;;;;;;;5.53;2.45;;;26.60;58.20;;;;;;5001409;28;20086;-92